Terminal Aerodrome Forecast
Issued by NWS

Current Version | Previous Version | Graphics & Text | Print | Product List | Glossary On
Versions: 1 2 3 4 5 6 7 8 9 10 11 12 13 14 15 16
000
FTUS41 KRNK 261739
TAFLWB
TAF
KLWB 261739Z 2618/2718 28008G15KT P6SM SCT060
     FM262300 28005KT P6SM SCT150
     FM271400 26009KT P6SM BKN030=

USA.gov is the U.S. government's official web portal to all federal, state and local government web resources and services.